createdAt,value
2019-05-07T00:02:02.759Z,9.47
2019-05-07T00:04:29.159Z,9.93
2019-05-07T00:06:55.154Z,9.00
2019-05-07T00:09:23.329Z,10.97
2019-05-07T00:11:49.456Z,9.23
2019-05-07T00:14:15.620Z,10.87
2019-05-07T00:16:43.165Z,11.30
2019-05-07T00:19:09.386Z,9.67
2019-05-07T00:21:36.536Z,9.77
2019-05-07T00:24:02.974Z,9.50
2019-05-07T00:26:29.299Z,11.27
2019-05-07T00:28:55.473Z,10.27
2019-05-07T00:31:23.261Z,9.93
2019-05-07T00:33:49.504Z,9.43
2019-05-07T00:36:15.619Z,10.97
2019-05-07T00:38:42.742Z,9.53
2019-05-07T00:41:09.101Z,11.60
2019-05-07T00:43:35.673Z,9.83
2019-05-07T00:46:02.872Z,10.73
2019-05-07T00:48:28.960Z,11.50
2019-05-07T00:50:55.236Z,11.53
2019-05-07T00:53:23.496Z,12.17
2019-05-07T00:55:49.279Z,10.33
2019-05-07T00:58:15.471Z,11.10
2019-05-07T01:00:42.663Z,10.73
2019-05-07T01:03:09.108Z,10.10
2019-05-07T01:05:35.079Z,10.53
2019-05-07T01:08:02.574Z,10.50
2019-05-07T01:10:30.068Z,10.03
2019-05-07T01:12:59.057Z,12.03
2019-05-07T01:15:30.742Z,11.97
2019-05-07T01:17:52.290Z,11.20
2019-05-07T01:20:18.553Z,10.67
2019-05-07T01:22:44.475Z,10.63
2019-05-07T01:25:12.695Z,10.70
2019-05-07T01:27:39.896Z,10.83
2019-05-07T01:30:06.356Z,11.30
2019-05-07T01:32:32.979Z,12.47
2019-05-07T01:34:59.323Z,9.73
2019-05-07T01:37:25.498Z,12.47
2019-05-07T01:39:52.935Z,9.90
2019-05-07T01:42:22.151Z,9.90
2019-05-07T01:44:48.302Z,11.63
2019-05-07T01:47:14.237Z,12.23
2019-05-07T01:49:42.188Z,11.90
2019-05-07T01:52:08.525Z,9.90
2019-05-07T01:54:34.465Z,9.77
2019-05-07T01:57:02.735Z,11.50
2019-05-07T01:59:28.558Z,10.13
2019-05-07T02:01:54.803Z,10.83
2019-05-07T02:04:22.391Z,10.57
2019-05-07T02:06:48.802Z,12.07
2019-05-07T02:09:14.839Z,10.97
2019-05-07T02:11:42.259Z,11.43
2019-05-07T02:14:08.552Z,11.13
2019-05-07T02:16:34.708Z,10.93
2019-05-07T02:19:02.186Z,10.50
2019-05-07T02:21:29.364Z,12.20
2019-05-07T02:23:55.559Z,11.40
2019-05-07T02:26:22.587Z,11.43
2019-05-07T02:28:48.789Z,10.87
2019-05-07T02:31:15.326Z,14.77
2019-05-07T02:33:43.362Z,12.53
2019-05-07T02:36:09.672Z,11.37
2019-05-07T02:38:35.749Z,10.93
2019-05-07T02:41:02.936Z,14.03
2019-05-07T02:43:29.099Z,11.73
2019-05-07T02:45:55.125Z,14.73
2019-05-07T02:48:23.746Z,11.80
2019-05-07T02:50:49.454Z,12.10
2019-05-07T02:53:18.010Z,11.60
2019-05-07T02:55:43.784Z,13.00
2019-05-07T02:58:09.833Z,14.67
2019-05-07T03:00:36.098Z,12.87
2019-05-07T03:03:04.072Z,11.77
2019-05-07T03:05:31.030Z,17.13
2019-05-07T03:07:57.191Z,12.47
2019-05-07T03:10:23.952Z,14.57
2019-05-07T03:12:53.362Z,13.90
2019-05-07T03:15:18.288Z,12.00
2019-05-07T03:17:44.467Z,12.00
2019-05-07T03:20:13.849Z,13.17
2019-05-07T03:22:39.187Z,13.57
2019-05-07T03:25:05.330Z,13.10
2019-05-07T03:27:34.195Z,13.70
2019-05-07T03:30:03.887Z,13.10
2019-05-07T03:32:28.644Z,14.17
2019-05-07T03:34:57.691Z,13.23
2019-05-07T03:37:23.601Z,14.93
2019-05-07T03:39:49.974Z,14.63
2019-05-07T03:42:16.156Z,13.80
2019-05-07T03:44:44.472Z,13.50
2019-05-07T03:47:10.067Z,15.33
2019-05-07T03:49:36.123Z,13.83
2019-05-07T03:52:04.255Z,15.83
2019-05-07T03:54:30.017Z,14.10
2019-05-07T03:56:56.080Z,15.67
2019-05-07T03:59:23.080Z,14.10
2019-05-07T04:01:49.472Z,13.27
2019-05-07T04:04:15.440Z,14.10
2019-05-07T04:06:43.405Z,13.33
2019-05-07T04:09:09.313Z,15.37
2019-05-07T04:11:35.398Z,14.37
2019-05-07T04:14:02.725Z,13.53
2019-05-07T04:16:33.016Z,14.83
2019-05-07T04:18:57.931Z,14.67
2019-05-07T04:21:24.016Z,16.03
2019-05-07T04:23:49.965Z,16.13
2019-05-07T04:26:16.080Z,16.70
2019-05-07T04:28:43.564Z,14.60
2019-05-07T04:31:09.944Z,15.30
2019-05-07T04:33:36.209Z,15.57
2019-05-07T04:36:02.988Z,13.37
2019-05-07T04:38:29.609Z,15.87
2019-05-07T04:40:55.703Z,18.00
2019-05-07T04:43:23.278Z,14.97
2019-05-07T04:45:49.801Z,15.13
2019-05-07T04:48:15.881Z,15.00
2019-05-07T04:50:44.317Z,16.83
2019-05-07T04:53:09.958Z,15.23
2019-05-07T04:55:36.014Z,16.80
2019-05-07T04:58:08.286Z,15.90
2019-05-07T05:00:33.604Z,14.13
2019-05-07T05:02:59.222Z,15.47
2019-05-07T05:05:26.350Z,14.33
2019-05-07T05:07:53.405Z,17.30
2019-05-07T05:10:19.577Z,15.40
2019-05-07T05:12:45.630Z,17.60
2019-05-07T05:15:12.756Z,15.30
2019-05-07T05:17:48.043Z,15.50
2019-05-07T05:20:07.041Z,16.67
2019-05-07T05:22:33.049Z,15.53
2019-05-07T05:24:58.990Z,15.93
2019-05-07T05:27:24.987Z,17.63
2019-05-07T05:29:52.056Z,17.87
2019-05-07T05:32:18.194Z,17.37
2019-05-07T05:34:44.318Z,16.73
2019-05-07T05:37:11.952Z,17.17
2019-05-07T05:39:38.145Z,18.33
2019-05-07T05:42:04.172Z,17.83
2019-05-07T05:44:32.009Z,18.57
2019-05-07T05:46:58.382Z,19.00
2019-05-07T05:49:24.324Z,18.57
2019-05-07T05:51:52.395Z,18.07
2019-05-07T05:54:18.610Z,17.43
2019-05-07T05:56:44.751Z,17.83
2019-05-07T05:59:24.176Z,18.47
2019-05-07T06:01:44.150Z,19.70
2019-05-07T06:04:12.336Z,17.63
2019-05-07T06:06:38.549Z,17.30
2019-05-07T06:09:06.625Z,19.80
2019-05-07T06:11:32.850Z,19.13
2019-05-07T06:13:59.178Z,18.37
2019-05-07T06:16:25.303Z,19.07
2019-05-07T06:18:52.546Z,18.87
2019-05-07T06:21:18.788Z,20.73
2019-05-07T06:23:45.114Z,18.73
2019-05-07T06:26:12.698Z,17.67
2019-05-07T06:28:38.992Z,18.77
2019-05-07T06:31:05.193Z,17.77
2019-05-07T06:33:32.450Z,17.77
2019-05-07T06:35:58.781Z,17.83
2019-05-07T06:38:24.790Z,18.20
2019-05-07T06:40:51.967Z,18.07
2019-05-07T06:43:18.039Z,18.23
2019-05-07T06:45:44.003Z,18.23
2019-05-07T06:48:12.479Z,18.30
2019-05-07T06:50:38.229Z,19.57
2019-05-07T06:53:04.188Z,17.33
2019-05-07T06:55:32.362Z,14.60
2019-05-07T06:57:58.829Z,11.63
2019-05-07T07:00:25.546Z,9.33
2019-05-07T07:02:52.522Z,8.47
2019-05-07T07:05:23.437Z,8.80
2019-05-07T07:07:47.687Z,10.87
2019-05-07T07:10:14.050Z,10.63
2019-05-07T07:12:41.889Z,10.80
2019-05-07T07:15:09.107Z,11.17
2019-05-07T07:17:35.257Z,15.07
2019-05-07T07:20:02.397Z,13.70
2019-05-07T07:22:28.534Z,12.83
2019-05-07T07:24:54.603Z,14.93
2019-05-07T07:27:22.698Z,13.07
2019-05-07T07:29:48.681Z,13.30
2019-05-07T07:32:14.685Z,10.67
2019-05-07T07:34:42.651Z,11.07
2019-05-07T07:37:12.838Z,9.27
2019-05-07T07:39:36.789Z,10.90
2019-05-07T07:42:03.104Z,9.00
2019-05-07T07:44:29.089Z,8.37
2019-05-07T07:46:55.085Z,7.77
2019-05-07T07:49:22.207Z,7.50
2019-05-07T07:51:48.521Z,6.97
2019-05-07T07:54:14.442Z,6.47
2019-05-07T07:56:50.018Z,7.13
2019-05-07T07:59:08.435Z,6.97
2019-05-07T08:01:34.684Z,8.03
2019-05-07T08:04:02.815Z,7.03
2019-05-07T08:06:28.804Z,6.57
2019-05-07T08:08:55.322Z,6.83
2019-05-07T08:11:22.037Z,5.67
2019-05-07T08:13:48.227Z,5.83
2019-05-07T08:16:14.374Z,8.10
2019-05-07T08:18:40.509Z,5.87
2019-05-07T08:21:08.052Z,5.77
2019-05-07T08:23:34.297Z,5.17
2019-05-07T08:26:02.415Z,4.70
2019-05-07T08:28:28.485Z,4.83
2019-05-07T08:30:54.462Z,5.50
2019-05-07T08:33:22.392Z,4.73
2019-05-07T08:35:48.593Z,4.97
2019-05-07T08:38:14.582Z,7.77
2019-05-07T08:40:41.854Z,6.80
2019-05-07T08:43:08.064Z,6.30
2019-05-07T08:45:34.426Z,5.77
2019-05-07T08:48:02.052Z,6.70
2019-05-07T08:50:28.214Z,4.90
2019-05-07T08:52:54.163Z,5.97
2019-05-07T08:55:21.792Z,5.73
2019-05-07T08:57:48.051Z,6.77
2019-05-07T09:00:15.238Z,5.83
2019-05-07T09:02:42.091Z,5.37
2019-05-07T09:05:09.307Z,6.63
2019-05-07T09:07:35.537Z,5.40
2019-05-07T09:10:02.805Z,5.90
2019-05-07T09:12:29.068Z,7.10
2019-05-07T09:14:55.064Z,5.90
2019-05-07T09:17:23.012Z,5.63
2019-05-07T09:19:52.237Z,6.00
2019-05-07T09:22:17.074Z,5.90
2019-05-07T09:24:44.990Z,5.40
2019-05-07T09:27:12.167Z,6.40
2019-05-07T09:29:38.556Z,5.43
2019-05-07T09:32:04.751Z,6.00
2019-05-07T09:34:32.714Z,5.47
2019-05-07T09:36:58.850Z,6.13
2019-05-07T09:39:26.134Z,6.43
2019-05-07T09:41:52.646Z,7.37
2019-05-07T09:44:18.850Z,8.30
2019-05-07T09:46:46.727Z,6.57
2019-05-07T09:49:13.107Z,14.40
2019-05-07T09:51:39.273Z,7.60
2019-05-07T09:54:05.390Z,6.53
2019-05-07T09:56:31.977Z,7.53
2019-05-07T09:58:58.481Z,5.80
2019-05-07T10:01:24.921Z,5.90
2019-05-07T10:03:51.833Z,7.37
2019-05-07T10:06:18.223Z,8.77
2019-05-07T10:08:44.411Z,6.03
2019-05-07T10:11:12.097Z,6.67
2019-05-07T10:13:39.626Z,6.23
2019-05-07T10:16:07.713Z,5.70
2019-05-07T10:18:34.225Z,5.93
2019-05-07T10:21:02.375Z,6.20
2019-05-07T10:23:28.610Z,6.37
2019-05-07T10:25:55.036Z,7.37
2019-05-07T10:28:22.735Z,6.57
2019-05-07T10:30:49.251Z,6.10
2019-05-07T10:33:15.525Z,6.90
2019-05-07T10:35:43.477Z,6.47
2019-05-07T10:38:09.830Z,5.63
2019-05-07T10:40:36.011Z,6.07
2019-05-07T10:43:02.477Z,6.17
2019-05-07T10:45:28.915Z,5.50
2019-05-07T10:47:55.205Z,6.47
2019-05-07T10:50:33.072Z,5.70
2019-05-07T10:52:49.469Z,6.90
2019-05-07T10:55:15.851Z,6.97
2019-05-07T10:57:42.342Z,6.07
2019-05-07T11:00:09.701Z,6.20
2019-05-07T11:02:39.333Z,6.47
2019-05-07T11:05:06.852Z,7.97
2019-05-07T11:07:32.922Z,7.00
2019-05-07T11:09:58.978Z,5.70
2019-05-07T11:12:25.116Z,6.03
2019-05-07T11:14:51.679Z,5.60
2019-05-07T11:17:17.749Z,5.50
2019-05-07T11:19:43.897Z,5.60
2019-05-07T11:22:11.636Z,6.23
2019-05-07T11:24:38.092Z,6.83
2019-05-07T11:27:04.239Z,5.47
2019-05-07T11:29:33.062Z,5.73
2019-05-07T11:31:59.255Z,5.97
2019-05-07T11:34:25.340Z,5.57
2019-05-07T11:36:52.593Z,5.10
2019-05-07T11:39:18.827Z,5.03
2019-05-07T11:41:44.882Z,6.13
2019-05-07T11:44:12.432Z,4.93
2019-05-07T11:46:38.569Z,5.27
2019-05-07T11:49:04.721Z,5.47
2019-05-07T11:51:32.901Z,5.37
2019-05-07T11:53:58.845Z,5.30
2019-05-07T11:56:24.877Z,4.90
2019-05-07T11:58:54.710Z,5.00
2019-05-07T12:01:22.372Z,5.47
2019-05-07T12:03:47.906Z,5.30
2019-05-07T12:06:15.253Z,5.70
2019-05-07T12:08:49.719Z,5.20
2019-05-07T12:11:09.320Z,6.83
2019-05-07T12:13:35.357Z,5.47
2019-05-07T12:16:03.019Z,5.17
2019-05-07T12:18:29.330Z,5.10
2019-05-07T12:20:55.350Z,5.27
2019-05-07T12:23:22.630Z,5.10
2019-05-07T12:25:49.231Z,5.33
2019-05-07T12:28:15.173Z,4.70
2019-05-07T12:30:42.839Z,4.77
2019-05-07T12:33:09.087Z,4.70
2019-05-07T12:35:36.185Z,4.47
2019-05-07T12:38:02.551Z,4.80
2019-05-07T12:40:28.739Z,6.00
2019-05-07T12:42:54.847Z,5.13
2019-05-07T12:45:22.827Z,5.50
2019-05-07T12:47:48.963Z,5.47
2019-05-07T12:50:15.090Z,4.33
2019-05-07T12:52:42.450Z,4.77
2019-05-07T12:55:09.399Z,6.07
2019-05-07T12:57:35.709Z,5.77
2019-05-07T13:00:04.842Z,5.10
2019-05-07T13:02:38.003Z,6.03
2019-05-07T13:04:59.254Z,5.43
2019-05-07T13:07:28.437Z,4.73
2019-05-07T13:09:54.536Z,5.13
2019-05-07T13:12:21.752Z,5.90
2019-05-07T13:14:47.910Z,6.97
2019-05-07T13:17:13.975Z,6.10
2019-05-07T13:19:41.883Z,5.40
2019-05-07T13:22:08.374Z,8.23
2019-05-07T13:24:34.457Z,9.73
2019-05-07T13:27:00.510Z,10.60
2019-05-07T13:29:26.628Z,8.17
2019-05-07T13:31:54.245Z,8.73
2019-05-07T13:34:22.780Z,6.47
2019-05-07T13:36:51.656Z,7.17
2019-05-07T13:39:18.765Z,6.23
2019-05-07T13:41:44.837Z,5.60
2019-05-07T13:44:12.339Z,6.13
2019-05-07T13:46:39.249Z,8.13
2019-05-07T13:49:05.636Z,5.77
2019-05-07T13:51:33.780Z,5.23
2019-05-07T13:54:02.103Z,5.80
2019-05-07T13:56:28.506Z,5.10
2019-05-07T13:58:56.127Z,7.30
2019-05-07T14:01:22.970Z,5.83
2019-05-07T14:03:50.209Z,7.50
2019-05-07T14:06:16.689Z,8.83
2019-05-07T14:08:43.124Z,6.23
2019-05-07T14:11:09.499Z,5.70
2019-05-07T14:13:35.967Z,5.70
2019-05-07T14:16:02.646Z,6.03
2019-05-07T14:18:29.920Z,5.63
2019-05-07T14:20:57.037Z,7.03
2019-05-07T14:23:23.043Z,7.57
2019-05-07T14:25:49.109Z,5.50
2019-05-07T14:28:15.154Z,7.20
2019-05-07T14:30:42.087Z,5.90
2019-05-07T14:33:08.254Z,5.90
2019-05-07T14:35:34.613Z,5.73
2019-05-07T14:38:00.882Z,6.97
2019-05-07T14:40:27.067Z,5.70
2019-05-07T14:42:54.187Z,5.80
2019-05-07T14:45:23.983Z,7.33
2019-05-07T14:47:52.248Z,11.03
2019-05-07T14:50:19.922Z,11.13
2019-05-07T14:52:46.280Z,5.90
2019-05-07T14:55:13.036Z,5.93
2019-05-07T14:57:39.513Z,7.20
2019-05-07T15:00:06.444Z,5.60
2019-05-07T15:02:33.962Z,5.97
2019-05-07T15:05:02.656Z,6.80
2019-05-07T15:07:28.362Z,6.10
2019-05-07T15:09:55.350Z,5.50
2019-05-07T15:12:23.338Z,5.20
2019-05-07T15:14:49.573Z,6.37
2019-05-07T15:17:15.612Z,5.67
2019-05-07T15:19:42.761Z,5.97
2019-05-07T15:22:09.002Z,8.17
2019-05-07T15:24:35.169Z,5.20
2019-05-07T15:27:02.179Z,5.37
2019-05-07T15:29:28.546Z,6.93
2019-05-07T15:31:54.605Z,6.17
2019-05-07T15:34:22.146Z,5.20
2019-05-07T15:36:48.542Z,6.92
2019-05-07T15:39:14.683Z,5.53
2019-05-07T15:41:42.704Z,5.70
2019-05-07T15:44:08.813Z,5.87
2019-05-07T15:46:34.845Z,5.33
2019-05-07T15:49:01.846Z,5.30
2019-05-07T15:51:28.139Z,6.33
2019-05-07T15:53:54.206Z,6.00
2019-05-07T15:56:21.920Z,7.23
2019-05-07T15:58:48.188Z,5.97
2019-05-07T16:01:14.181Z,7.20
2019-05-07T16:03:40.236Z,4.90
2019-05-07T16:06:07.127Z,8.87
2019-05-07T16:08:33.417Z,8.07
2019-05-07T16:11:01.552Z,4.77
2019-05-07T16:13:27.458Z,6.90
2019-05-07T16:15:53.438Z,5.73
2019-05-07T16:18:23.662Z,5.13
2019-05-07T16:20:48.399Z,5.90
2019-05-07T16:23:18.021Z,5.40
2019-05-07T16:25:42.489Z,5.90
2019-05-07T16:28:08.452Z,5.70
2019-05-07T16:30:34.449Z,7.50
2019-05-07T16:33:02.121Z,5.87
2019-05-07T16:35:29.144Z,6.30
2019-05-07T16:37:55.618Z,5.40
2019-05-07T16:40:22.994Z,5.50
2019-05-07T16:42:49.393Z,6.37
2019-05-07T16:45:16.729Z,5.70
2019-05-07T16:47:43.104Z,5.33
2019-05-07T16:50:12.942Z,5.60
2019-05-07T16:52:39.220Z,6.37
2019-05-07T16:55:06.615Z,5.50
2019-05-07T16:57:33.710Z,5.93
2019-05-07T16:59:59.818Z,6.07
2019-05-07T17:02:25.920Z,6.73
2019-05-07T17:04:52.053Z,6.37
2019-05-07T17:07:18.228Z,11.13
2019-05-07T17:09:44.318Z,6.00
2019-05-07T17:12:10.513Z,5.57
2019-05-07T17:14:36.599Z,6.10
2019-05-07T17:17:02.870Z,5.77
2019-05-07T17:19:31.957Z,7.17
2019-05-07T17:21:58.147Z,8.53
2019-05-07T17:24:24.488Z,7.77
2019-05-07T17:26:51.757Z,7.17
2019-05-07T17:29:18.004Z,6.47
2019-05-07T17:31:44.094Z,6.03
2019-05-07T17:34:11.783Z,5.57
2019-05-07T17:36:38.290Z,5.63
2019-05-07T17:39:05.667Z,6.07
2019-05-07T17:41:33.508Z,7.07
2019-05-07T17:43:59.700Z,6.83
2019-05-07T17:46:25.982Z,6.63
2019-05-07T17:48:52.567Z,7.20
2019-05-07T17:51:21.584Z,6.43
2019-05-07T17:53:57.655Z,7.03
2019-05-07T17:56:15.681Z,7.40
2019-05-07T17:58:42.667Z,7.30
2019-05-07T18:01:09.997Z,7.30
2019-05-07T18:03:36.226Z,7.93
2019-05-07T18:06:03.055Z,7.53
2019-05-07T18:08:29.332Z,6.47
2019-05-07T18:10:56.419Z,7.13
2019-05-07T18:13:22.480Z,7.40
2019-05-07T18:15:48.705Z,7.67
2019-05-07T18:18:14.810Z,7.90
2019-05-07T18:20:42.261Z,7.60
2019-05-07T18:23:13.331Z,8.47
2019-05-07T18:25:37.682Z,8.20
2019-05-07T18:28:03.979Z,8.27
2019-05-07T18:30:30.109Z,8.90
2019-05-07T18:32:56.157Z,8.13
2019-05-07T18:35:23.100Z,9.10
2019-05-07T18:37:52.273Z,8.33
2019-05-07T18:40:20.516Z,9.20
2019-05-07T18:42:46.602Z,9.87
2019-05-07T18:45:12.942Z,10.40
2019-05-07T18:47:39.077Z,8.77
2019-05-07T18:50:05.196Z,9.13
2019-05-07T18:52:31.985Z,8.90
2019-05-07T18:54:58.154Z,9.83
2019-05-07T18:57:24.114Z,9.00
2019-05-07T18:59:50.081Z,9.03
2019-05-07T19:02:16.164Z,10.07
2019-05-07T19:04:42.337Z,10.03
2019-05-07T19:07:08.423Z,9.87
2019-05-07T19:09:34.599Z,9.97
2019-05-07T19:12:00.757Z,12.03
2019-05-07T19:14:26.816Z,10.30
2019-05-07T19:16:52.955Z,11.37
2019-05-07T19:19:22.173Z,11.17
2019-05-07T19:21:48.093Z,9.40
2019-05-07T19:24:14.263Z,11.33
2019-05-07T19:26:42.102Z,9.93
2019-05-07T19:29:08.191Z,10.00
2019-05-07T19:31:35.414Z,12.27
2019-05-07T19:34:04.745Z,10.10
2019-05-07T19:36:32.181Z,9.27
2019-05-07T19:38:58.218Z,9.37
2019-05-07T19:41:25.574Z,8.67
2019-05-07T19:43:52.768Z,9.70
2019-05-07T19:46:18.923Z,9.47
2019-05-07T19:48:46.533Z,9.10
2019-05-07T19:51:12.551Z,10.27
2019-05-07T19:53:38.752Z,9.43
2019-05-07T19:56:04.959Z,11.40
2019-05-07T19:58:32.701Z,10.57
2019-05-07T20:00:59.197Z,10.70
2019-05-07T20:03:25.267Z,9.67
2019-05-07T20:05:52.505Z,10.33
2019-05-07T20:08:21.033Z,10.03
2019-05-07T20:10:47.153Z,11.50
2019-05-07T20:13:13.525Z,9.87
2019-05-07T20:15:39.583Z,10.87
2019-05-07T20:18:05.579Z,11.13
2019-05-07T20:20:33.160Z,10.67
2019-05-07T20:23:02.431Z,10.53
2019-05-07T20:25:28.527Z,10.70
2019-05-07T20:27:54.652Z,12.53
2019-05-07T20:30:22.742Z,11.00
2019-05-07T20:32:48.524Z,11.80
2019-05-07T20:35:14.721Z,12.07
2019-05-07T20:37:41.966Z,11.43
2019-05-07T20:40:08.610Z,12.20
2019-05-07T20:42:34.792Z,11.73
2019-05-07T20:45:02.989Z,12.37
2019-05-07T20:47:28.966Z,12.17
2019-05-07T20:49:56.080Z,12.83
2019-05-07T20:52:23.169Z,11.73
2019-05-07T20:54:49.186Z,11.13
2019-05-07T20:57:15.179Z,11.30
2019-05-07T20:59:43.186Z,14.83
2019-05-07T21:02:09.197Z,10.80
2019-05-07T21:04:35.722Z,10.83
2019-05-07T21:07:02.181Z,11.80
2019-05-07T21:09:32.613Z,11.50
2019-05-07T21:11:58.285Z,12.83
2019-05-07T21:14:25.966Z,11.03
2019-05-07T21:16:52.006Z,11.37
2019-05-07T21:19:18.022Z,12.57
2019-05-07T21:21:44.044Z,12.57
2019-05-07T21:24:13.019Z,11.40
2019-05-07T21:26:39.446Z,12.27
2019-05-07T21:29:05.592Z,11.00
2019-05-07T21:31:33.446Z,10.33
2019-05-07T21:33:59.681Z,10.60
2019-05-07T21:36:25.665Z,11.20
2019-05-07T21:38:52.006Z,12.27
2019-05-07T21:41:19.241Z,11.80
2019-05-07T21:43:46.208Z,12.33
2019-05-07T21:46:12.969Z,11.90
2019-05-07T21:48:39.190Z,10.57
2019-05-07T21:51:06.309Z,10.60
2019-05-07T21:53:32.529Z,10.30
2019-05-07T21:56:01.788Z,10.20
2019-05-07T21:58:26.642Z,10.77
2019-05-07T22:00:54.447Z,10.40
2019-05-07T22:03:20.538Z,10.47
2019-05-07T22:05:46.747Z,10.30
2019-05-07T22:08:12.826Z,10.03
2019-05-07T22:10:38.891Z,11.30
2019-05-07T22:13:04.922Z,10.13
2019-05-07T22:15:31.907Z,11.03
2019-05-07T22:17:58.028Z,10.00
2019-05-07T22:20:24.110Z,10.47
2019-05-07T22:22:52.081Z,9.93
2019-05-07T22:25:19.079Z,10.30
2019-05-07T22:27:47.105Z,10.80
2019-05-07T22:30:13.249Z,10.67
2019-05-07T22:32:39.319Z,10.13
2019-05-07T22:35:05.775Z,10.70
2019-05-07T22:37:33.737Z,9.83
2019-05-07T22:40:18.027Z,10.37
2019-05-07T22:42:51.691Z,11.63
2019-05-07T22:45:18.774Z,10.97
2019-05-07T22:47:45.055Z,11.20
2019-05-07T22:50:11.978Z,14.10
2019-05-07T22:52:39.267Z,13.00
2019-05-07T22:55:08.525Z,12.20
2019-05-07T22:57:34.622Z,14.10
2019-05-07T23:00:06.334Z,13.97
2019-05-07T23:02:35.471Z,13.80
2019-05-07T23:05:04.694Z,14.40
2019-05-07T23:07:34.822Z,13.80
2019-05-07T23:10:03.030Z,13.50
2019-05-07T23:12:29.112Z,13.63
2019-05-07T23:14:57.123Z,13.80
2019-05-07T23:17:28.197Z,13.03
2019-05-07T23:20:04.926Z,14.17
2019-05-07T23:22:39.013Z,14.47
2019-05-07T23:25:12.458Z,14.43
2019-05-07T23:27:43.448Z,13.47
2019-05-07T23:30:12.480Z,12.83
2019-05-07T23:32:38.777Z,13.17
2019-05-07T23:35:12.938Z,11.97
2019-05-07T23:37:39.013Z,12.83
2019-05-07T23:40:05.668Z,13.27
2019-05-07T23:42:31.733Z,13.07
2019-05-07T23:44:57.824Z,14.10
2019-05-07T23:47:23.820Z,13.53
2019-05-07T23:49:52.235Z,14.13
2019-05-07T23:52:17.879Z,13.70
2019-05-07T23:54:43.843Z,14.40
2019-05-07T23:57:14.910Z,13.47
2019-05-07T23:59:38.057Z,13.73
